createdAt,value
2019-02-22T00:00:58.317Z,1002.77
2019-02-22T00:01:58.242Z,1002.79
2019-02-22T00:02:58.165Z,1002.79
2019-02-22T00:03:58.084Z,1002.80
2019-02-22T00:04:58.006Z,1002.82
2019-02-22T00:05:57.928Z,1002.87
2019-02-22T00:06:57.852Z,1002.85
2019-02-22T00:07:57.773Z,1002.83
2019-02-22T00:08:57.696Z,1002.88
2019-02-22T00:09:57.617Z,1002.87
2019-02-22T00:10:57.540Z,1002.86
2019-02-22T00:11:57.461Z,1002.85
2019-02-22T00:12:57.384Z,1002.81
2019-02-22T00:13:57.305Z,1002.84
2019-02-22T00:14:57.229Z,1002.88
2019-02-22T00:15:57.150Z,1002.90
2019-02-22T00:16:57.073Z,1002.91
2019-02-22T00:17:56.995Z,1002.95
2019-02-22T00:18:56.919Z,1002.95
2019-02-22T00:19:56.841Z,1002.92
2019-02-22T00:20:56.762Z,1002.89
2019-02-22T00:21:56.685Z,1002.91
2019-02-22T00:22:56.607Z,1002.90
2019-02-22T00:23:56.531Z,1002.91
2019-02-22T00:24:56.451Z,1002.89
2019-02-22T00:25:56.376Z,1002.90
2019-02-22T00:26:56.302Z,1002.84
2019-02-22T00:27:56.218Z,1002.85
2019-02-22T00:28:56.141Z,1002.86
2019-02-22T00:29:56.063Z,1002.86
2019-02-22T00:30:55.984Z,1002.82
2019-02-22T00:31:55.906Z,1002.84
2019-02-22T00:32:55.828Z,1002.81
2019-02-22T00:33:55.752Z,1002.79
2019-02-22T00:34:55.673Z,1002.80
2019-02-22T00:35:55.649Z,1002.81
2019-02-22T00:36:55.676Z,1002.78
2019-02-22T00:37:55.442Z,1002.77
2019-02-22T00:38:55.362Z,1002.76
2019-02-22T00:39:55.284Z,1002.80
2019-02-22T00:40:55.206Z,1002.80
2019-02-22T00:41:55.137Z,1002.81
2019-02-22T00:42:55.090Z,1002.83
2019-02-22T00:43:54.974Z,1002.87
2019-02-22T00:44:54.895Z,1002.89
2019-02-22T00:45:54.819Z,1002.90
2019-02-22T00:46:54.741Z,1002.91
2019-02-22T00:47:54.663Z,1002.90
2019-02-22T00:48:54.586Z,1002.89
2019-02-22T00:49:54.507Z,1002.90
2019-02-22T00:50:54.430Z,1002.89
2019-02-22T00:51:54.352Z,1002.92
2019-02-22T00:52:54.272Z,1002.92
2019-02-22T00:53:54.198Z,1002.85
2019-02-22T00:54:54.118Z,1002.92
2019-02-22T00:55:54.041Z,1002.89
2019-02-22T00:56:53.967Z,1002.91
2019-02-22T00:57:53.884Z,1002.92
2019-02-22T00:58:53.808Z,1002.90
2019-02-22T00:59:53.730Z,1002.96
2019-02-22T01:00:53.652Z,1002.96
2019-02-22T01:01:53.658Z,1002.98
2019-02-22T01:02:53.496Z,1002.98
2019-02-22T01:03:53.417Z,1002.95
2019-02-22T01:04:53.340Z,1002.96
2019-02-22T01:05:53.262Z,1002.94
2019-02-22T01:06:53.184Z,1002.96
2019-02-22T01:07:53.110Z,1002.92
2019-02-22T01:08:53.028Z,1002.97
2019-02-22T01:09:52.953Z,1002.93
2019-02-22T01:10:52.873Z,1002.90
2019-02-22T01:11:52.795Z,1002.90
2019-02-22T01:12:52.717Z,1002.92
2019-02-22T01:13:52.640Z,1002.89
2019-02-22T01:14:52.564Z,1002.91
2019-02-22T01:15:52.482Z,1002.90
2019-02-22T01:16:52.407Z,1002.90
2019-02-22T01:17:52.325Z,1002.86
2019-02-22T01:18:52.418Z,1002.91
2019-02-22T01:19:52.169Z,1002.86
2019-02-22T01:20:54.650Z,1002.90
2019-02-22T01:21:52.016Z,1002.88
2019-02-22T01:22:51.934Z,1002.93
2019-02-22T01:23:51.857Z,1002.93
2019-02-22T01:24:51.779Z,1002.98
2019-02-22T01:25:51.700Z,1002.96
2019-02-22T01:26:51.623Z,1002.97
2019-02-22T01:27:51.545Z,1002.95
2019-02-22T01:28:51.466Z,1002.99
2019-02-22T01:29:51.387Z,1002.99
2019-02-22T01:30:51.310Z,1002.99
2019-02-22T01:31:51.232Z,1003.05
2019-02-22T01:32:51.153Z,1003.02
2019-02-22T01:33:51.088Z,1003.03
2019-02-22T01:34:50.997Z,1003.06
2019-02-22T01:35:50.920Z,1003.02
2019-02-22T01:36:50.841Z,1003.05
2019-02-22T01:37:50.763Z,1003.03
2019-02-22T01:38:50.759Z,1003.05
2019-02-22T01:39:50.607Z,1003.04
2019-02-22T01:40:50.578Z,1003.04
2019-02-22T01:41:50.452Z,1003.05
2019-02-22T01:42:50.374Z,1003.07
2019-02-22T01:43:50.295Z,1003.07
2019-02-22T01:44:50.217Z,1003.11
2019-02-22T01:45:50.139Z,1003.11
2019-02-22T01:46:50.085Z,1003.17
2019-02-22T01:47:49.984Z,1003.19
2019-02-22T01:48:49.906Z,1003.18
2019-02-22T01:49:49.828Z,1003.18
2019-02-22T01:50:49.752Z,1003.17
2019-02-22T01:51:49.673Z,1003.19
2019-02-22T01:52:49.595Z,1003.19
2019-02-22T01:53:49.518Z,1003.19
2019-02-22T01:54:49.439Z,1003.21
2019-02-22T01:55:49.362Z,1003.21
2019-02-22T01:56:49.283Z,1003.21
2019-02-22T01:57:49.226Z,1003.24
2019-02-22T01:58:49.193Z,1003.20
2019-02-22T01:59:49.062Z,1003.25
2019-02-22T02:00:48.970Z,1003.24
2019-02-22T02:01:48.892Z,1003.21
2019-02-22T02:02:48.890Z,1003.21
2019-02-22T02:03:48.736Z,1003.22
2019-02-22T02:04:48.657Z,1003.20
2019-02-22T02:05:48.579Z,1003.15
2019-02-22T02:06:48.501Z,1003.18
2019-02-22T02:07:48.426Z,1003.18
2019-02-22T02:08:48.346Z,1003.16
2019-02-22T02:09:48.272Z,1003.20
2019-02-22T02:10:54.054Z,1003.19
2019-02-22T02:11:48.113Z,1003.19
2019-02-22T02:12:48.033Z,1003.22
2019-02-22T02:13:47.956Z,1003.23
2019-02-22T02:14:47.879Z,1003.20
2019-02-22T02:15:47.802Z,1003.23
2019-02-22T02:16:47.771Z,1003.27
2019-02-22T02:17:47.645Z,1003.30
2019-02-22T02:18:47.567Z,1003.33
2019-02-22T02:19:47.491Z,1003.31
2019-02-22T02:20:47.419Z,1003.31
2019-02-22T02:21:47.338Z,1003.32
2019-02-22T02:22:47.257Z,1003.31
2019-02-22T02:23:47.180Z,1003.32
2019-02-22T02:24:47.100Z,1003.33
2019-02-22T02:25:47.024Z,1003.34
2019-02-22T02:26:46.946Z,1003.32
2019-02-22T02:27:46.869Z,1003.35
2019-02-22T02:28:46.790Z,1003.36
2019-02-22T02:29:46.711Z,1003.33
2019-02-22T02:30:46.641Z,1003.33
2019-02-22T02:31:46.558Z,1003.35
2019-02-22T02:32:46.488Z,1003.33
2019-02-22T02:33:46.404Z,1003.36
2019-02-22T02:34:46.326Z,1003.36
2019-02-22T02:35:46.246Z,1003.34
2019-02-22T02:36:46.172Z,1003.36
2019-02-22T02:37:46.101Z,1003.34
2019-02-22T02:38:46.011Z,1003.35
2019-02-22T02:39:45.940Z,1003.33
2019-02-22T02:40:45.863Z,1003.33
2019-02-22T02:42:45.700Z,1003.35
2019-02-22T02:43:45.624Z,1003.37
2019-02-22T02:44:45.547Z,1003.37
2019-02-22T02:45:45.468Z,1003.39
2019-02-22T02:46:45.390Z,1003.35
2019-02-22T02:47:45.312Z,1003.35
2019-02-22T02:48:45.235Z,1003.38
2019-02-22T02:49:45.160Z,1003.38
2019-02-22T02:50:45.079Z,1003.38
2019-02-22T02:51:45.003Z,1003.43
2019-02-22T02:52:44.922Z,1003.40
2019-02-22T02:53:44.845Z,1003.40
2019-02-22T02:54:44.768Z,1003.38
2019-02-22T02:55:44.692Z,1003.36
2019-02-22T02:56:46.247Z,1003.38
2019-02-22T02:57:44.535Z,1003.41
2019-02-22T02:58:44.466Z,1003.43
2019-02-22T02:59:44.379Z,1003.46
2019-02-22T03:00:44.302Z,1003.47
2019-02-22T03:01:44.243Z,1003.47
2019-02-22T03:02:44.147Z,1003.43
2019-02-22T03:03:44.069Z,1003.44
2019-02-22T03:04:43.993Z,1003.36
2019-02-22T03:05:43.916Z,1003.34
2019-02-22T03:06:43.843Z,1003.37
2019-02-22T03:07:43.759Z,1003.36
2019-02-22T03:08:43.682Z,1003.36
2019-02-22T03:09:43.603Z,1003.35
2019-02-22T03:10:43.525Z,1003.34
2019-02-22T03:11:43.448Z,1003.33
2019-02-22T03:12:43.375Z,1003.32
2019-02-22T03:13:43.308Z,1003.28
2019-02-22T03:14:43.215Z,1003.32
2019-02-22T03:15:43.143Z,1003.30
2019-02-22T03:16:43.060Z,1003.30
2019-02-22T03:17:43.032Z,1003.34
2019-02-22T03:18:42.905Z,1003.36
2019-02-22T03:19:42.828Z,1003.38
2019-02-22T03:20:42.753Z,1003.40
2019-02-22T03:21:42.672Z,1003.39
2019-02-22T03:22:42.593Z,1003.43
2019-02-22T03:23:42.521Z,1003.47
2019-02-22T03:24:42.438Z,1003.46
2019-02-22T03:25:42.360Z,1003.52
2019-02-22T03:26:42.288Z,1003.55
2019-02-22T03:27:42.205Z,1003.52
2019-02-22T03:28:42.126Z,1003.52
2019-02-22T03:29:42.050Z,1003.54
2019-02-22T03:30:41.974Z,1003.52
2019-02-22T03:31:41.920Z,1003.50
2019-02-22T03:32:41.817Z,1003.51
2019-02-22T03:33:41.794Z,1003.52
2019-02-22T03:34:41.661Z,1003.56
2019-02-22T03:35:41.583Z,1003.55
2019-02-22T03:36:41.505Z,1003.60
2019-02-22T03:37:41.428Z,1003.65
2019-02-22T03:38:41.355Z,1003.64
2019-02-22T03:39:41.272Z,1003.61
2019-02-22T03:40:41.200Z,1003.64
2019-02-22T03:41:41.118Z,1003.63
2019-02-22T03:42:41.039Z,1003.65
2019-02-22T03:43:41.063Z,1003.66
2019-02-22T03:44:40.883Z,1003.65
2019-02-22T03:45:40.805Z,1003.67
2019-02-22T03:46:40.729Z,1003.69
2019-02-22T03:47:40.659Z,1003.70
2019-02-22T03:48:40.573Z,1003.67
2019-02-22T03:49:40.496Z,1003.66
2019-02-22T03:50:40.420Z,1003.66
2019-02-22T03:51:40.341Z,1003.67
2019-02-22T03:52:40.263Z,1003.69
2019-02-22T03:53:40.186Z,1003.67
2019-02-22T03:54:40.107Z,1003.71
2019-02-22T03:55:40.031Z,1003.73
2019-02-22T03:56:39.952Z,1003.76
2019-02-22T03:57:39.876Z,1003.72
2019-02-22T03:58:39.804Z,1003.72
2019-02-22T03:59:39.722Z,1003.74
2019-02-22T04:00:39.644Z,1003.74
2019-02-22T04:01:39.566Z,1003.77
2019-02-22T04:02:39.489Z,1003.77
2019-02-22T04:03:39.419Z,1003.77
2019-02-22T04:04:39.334Z,1003.78
2019-02-22T04:05:39.256Z,1003.78
2019-02-22T04:06:39.179Z,1003.80
2019-02-22T04:07:39.103Z,1003.83
2019-02-22T04:08:39.023Z,1003.81
2019-02-22T04:09:38.950Z,1003.77
2019-02-22T04:10:38.869Z,1003.78
2019-02-22T04:11:45.509Z,1003.76
2019-02-22T04:12:38.720Z,1003.80
2019-02-22T04:13:38.635Z,1003.80
2019-02-22T04:14:38.561Z,1003.83
2019-02-22T04:15:38.481Z,1003.87
2019-02-22T04:16:38.401Z,1003.87
2019-02-22T04:17:38.325Z,1003.85
2019-02-22T04:18:38.248Z,1003.85
2019-02-22T04:19:38.175Z,1003.85
2019-02-22T04:20:38.094Z,1003.85
2019-02-22T04:21:38.015Z,1003.84
2019-02-22T04:22:37.942Z,1003.88
2019-02-22T04:23:37.867Z,1003.90
2019-02-22T04:24:37.782Z,1003.87
2019-02-22T04:25:37.706Z,1003.87
2019-02-22T04:26:37.626Z,1003.89
2019-02-22T04:27:37.549Z,1003.92
2019-02-22T04:28:37.474Z,1003.88
2019-02-22T04:29:37.395Z,1003.94
2019-02-22T04:30:38.073Z,1003.94
2019-02-22T04:31:37.242Z,1003.94
2019-02-22T04:32:37.162Z,1003.95
2019-02-22T04:33:37.084Z,1003.98
2019-02-22T04:34:37.007Z,1004.02
2019-02-22T04:35:36.932Z,1004.04
2019-02-22T04:36:36.851Z,1004.03
2019-02-22T04:37:36.775Z,1004.05
2019-02-22T04:38:36.697Z,1004.05
2019-02-22T04:39:36.634Z,1004.03
2019-02-22T04:40:36.542Z,1004.06
2019-02-22T04:41:36.463Z,1004.04
2019-02-22T04:42:36.392Z,1004.05
2019-02-22T04:43:36.313Z,1004.06
2019-02-22T04:44:36.231Z,1004.05
2019-02-22T04:45:36.153Z,1004.05
2019-02-22T04:46:36.076Z,1004.08
2019-02-22T04:47:36.000Z,1004.06
2019-02-22T04:48:35.920Z,1004.12
2019-02-22T04:49:35.845Z,1004.11
2019-02-22T04:50:35.767Z,1004.12
2019-02-22T04:51:35.689Z,1004.12
2019-02-22T04:52:35.611Z,1004.11
2019-02-22T04:53:35.534Z,1004.11
2019-02-22T04:54:35.455Z,1004.06
2019-02-22T04:55:35.379Z,1004.10
2019-02-22T04:56:35.300Z,1004.06
2019-02-22T04:57:35.226Z,1004.00
2019-02-22T04:58:35.149Z,1004.06
2019-02-22T04:59:35.068Z,1004.06
2019-02-22T05:00:34.991Z,1004.06
2019-02-22T05:01:34.913Z,1004.03
2019-02-22T05:02:34.835Z,1004.08
2019-02-22T05:03:34.760Z,1004.05
2019-02-22T05:04:34.679Z,1004.09
2019-02-22T05:05:34.605Z,1004.10
2019-02-22T05:06:34.525Z,1004.10
2019-02-22T05:07:34.447Z,1004.06
2019-02-22T05:08:34.369Z,1004.03
2019-02-22T05:09:34.291Z,1004.05
2019-02-22T05:10:34.217Z,1004.05
2019-02-22T05:11:34.141Z,1004.06
2019-02-22T05:12:34.059Z,1004.07
2019-02-22T05:13:33.983Z,1004.06
2019-02-22T05:14:33.908Z,1004.09
2019-02-22T05:15:33.827Z,1004.07
2019-02-22T05:16:33.755Z,1004.13
2019-02-22T05:17:35.799Z,1004.12
2019-02-22T05:18:33.595Z,1004.10
2019-02-22T05:19:33.518Z,1004.09
2019-02-22T05:20:33.440Z,1004.11
2019-02-22T05:21:33.394Z,1004.09
2019-02-22T05:22:33.285Z,1004.10
2019-02-22T05:23:33.207Z,1004.09
2019-02-22T05:24:33.129Z,1004.12
2019-02-22T05:25:33.051Z,1004.17
2019-02-22T05:26:32.975Z,1004.17
2019-02-22T05:27:32.897Z,1004.18
2019-02-22T05:28:32.820Z,1004.25
2019-02-22T05:29:32.743Z,1004.20
2019-02-22T05:30:32.665Z,1004.25
2019-02-22T05:31:32.636Z,1004.25
2019-02-22T05:32:32.508Z,1004.27
2019-02-22T05:33:32.430Z,1004.27
2019-02-22T05:34:32.355Z,1004.31
2019-02-22T05:35:32.277Z,1004.28
2019-02-22T05:36:32.197Z,1004.31
2019-02-22T05:37:32.121Z,1004.31
2019-02-22T05:38:32.042Z,1004.30
2019-02-22T05:39:31.966Z,1004.31
2019-02-22T05:40:31.887Z,1004.32
2019-02-22T05:41:31.809Z,1004.38
2019-02-22T05:42:31.734Z,1004.42
2019-02-22T05:43:31.655Z,1004.40
2019-02-22T05:44:31.585Z,1004.44
2019-02-22T05:45:31.502Z,1004.48
2019-02-22T05:46:31.423Z,1004.49
2019-02-22T05:47:31.350Z,1004.48
2019-02-22T05:48:31.270Z,1004.52
2019-02-22T05:49:31.197Z,1004.54
2019-02-22T05:50:31.117Z,1004.62
2019-02-22T05:51:31.034Z,1004.60
2019-02-22T05:52:30.956Z,1004.67
2019-02-22T05:53:30.879Z,1004.72
2019-02-22T05:54:30.804Z,1004.73
2019-02-22T05:55:30.725Z,1004.71
2019-02-22T05:56:30.648Z,1004.78
2019-02-22T05:57:30.571Z,1004.79
2019-02-22T05:58:30.492Z,1004.84
2019-02-22T05:59:30.416Z,1004.84
2019-02-22T06:00:30.335Z,1004.89
2019-02-22T06:01:30.258Z,1004.95
2019-02-22T06:02:30.180Z,1004.90
2019-02-22T06:03:30.103Z,1004.94
2019-02-22T06:04:30.023Z,1004.95
2019-02-22T06:05:29.946Z,1004.94
2019-02-22T06:06:30.035Z,1004.96
2019-02-22T06:07:29.792Z,1004.96
2019-02-22T06:08:29.713Z,1005.03
2019-02-22T06:09:29.637Z,1005.04
2019-02-22T06:10:29.564Z,1005.04
2019-02-22T06:11:29.480Z,1005.00
2019-02-22T06:12:34.625Z,1004.97
2019-02-22T06:13:29.329Z,1004.97
2019-02-22T06:14:29.246Z,1004.99
2019-02-22T06:15:31.410Z,1005.06
2019-02-22T06:16:29.090Z,1005.02
2019-02-22T06:17:29.014Z,1005.03
2019-02-22T06:18:28.937Z,1005.03
2019-02-22T06:19:28.858Z,1005.05
2019-02-22T06:20:28.781Z,1005.09
2019-02-22T06:21:28.701Z,1005.07
2019-02-22T06:22:29.928Z,1005.07
2019-02-22T06:23:28.547Z,1005.10
2019-02-22T06:24:28.467Z,1005.10
2019-02-22T06:25:28.392Z,1005.10
2019-02-22T06:26:30.395Z,1005.10
2019-02-22T06:27:28.236Z,1005.11
2019-02-22T06:28:28.157Z,1005.14
2019-02-22T06:29:28.081Z,1005.17
2019-02-22T06:30:28.001Z,1005.12
2019-02-22T06:31:27.925Z,1005.12
2019-02-22T06:32:27.846Z,1005.11
2019-02-22T06:33:27.768Z,1005.11
2019-02-22T06:34:27.694Z,1005.12
2019-02-22T06:35:27.614Z,1005.10
2019-02-22T06:36:27.538Z,1005.13
2019-02-22T06:37:27.458Z,1005.14
2019-02-22T06:38:27.384Z,1005.11
2019-02-22T06:39:27.303Z,1005.13
2019-02-22T06:40:27.224Z,1005.18
2019-02-22T06:41:27.150Z,1005.17
2019-02-22T06:42:27.073Z,1005.17
2019-02-22T06:43:26.991Z,1005.20
2019-02-22T06:44:26.913Z,1005.21
2019-02-22T06:45:26.835Z,1005.18
2019-02-22T06:46:26.758Z,1005.12
2019-02-22T06:47:26.693Z,1005.17
2019-02-22T06:48:26.602Z,1005.16
2019-02-22T06:49:26.524Z,1005.16
2019-02-22T06:50:33.785Z,1005.13
2019-02-22T06:51:26.369Z,1005.14
2019-02-22T06:52:26.290Z,1005.26
2019-02-22T06:53:26.212Z,1005.26
2019-02-22T06:54:26.135Z,1005.28
2019-02-22T06:55:26.059Z,1005.33
2019-02-22T06:56:25.980Z,1005.38
2019-02-22T06:57:25.902Z,1005.35
2019-02-22T06:58:25.825Z,1005.35
2019-02-22T06:59:25.747Z,1005.36
2019-02-22T07:00:25.669Z,1005.28
2019-02-22T07:01:25.592Z,1005.26
2019-02-22T07:02:25.516Z,1005.27
2019-02-22T07:03:25.439Z,1005.26
2019-02-22T07:04:25.358Z,1005.26
2019-02-22T07:05:25.281Z,1005.30
2019-02-22T07:06:25.203Z,1005.29
2019-02-22T07:07:25.126Z,1005.33
2019-02-22T07:08:25.119Z,1005.38
2019-02-22T07:09:24.971Z,1005.39
2019-02-22T07:10:24.932Z,1005.38
2019-02-22T07:11:24.816Z,1005.44
2019-02-22T07:12:24.737Z,1005.44
2019-02-22T07:13:24.665Z,1005.45
2019-02-22T07:14:24.583Z,1005.48
2019-02-22T07:15:24.504Z,1005.44
2019-02-22T07:16:24.488Z,1005.45
2019-02-22T07:17:24.349Z,1005.49
2019-02-22T07:18:24.271Z,1005.48
2019-02-22T07:19:24.193Z,1005.46
2019-02-22T07:20:24.116Z,1005.48
2019-02-22T07:21:24.042Z,1005.50
2019-02-22T07:22:23.961Z,1005.50
2019-02-22T07:23:23.884Z,1005.50
2019-02-22T07:24:23.858Z,1005.52
2019-02-22T07:25:23.742Z,1005.55
2019-02-22T07:26:23.655Z,1005.59
2019-02-22T07:27:23.573Z,1005.57
2019-02-22T07:28:23.496Z,1005.59
2019-02-22T07:29:23.419Z,1005.60
2019-02-22T07:30:23.342Z,1005.63
2019-02-22T07:31:23.368Z,1005.63
2019-02-22T07:32:23.187Z,1005.65
2019-02-22T07:33:23.112Z,1005.64
2019-02-22T07:34:23.032Z,1005.65
2019-02-22T07:35:22.956Z,1005.66
2019-02-22T07:36:22.877Z,1005.66
2019-02-22T07:37:22.802Z,1005.67
2019-02-22T07:38:22.729Z,1005.74
2019-02-22T07:39:28.018Z,1005.78
2019-02-22T07:40:22.569Z,1005.79
2019-02-22T07:41:22.493Z,1005.84
2019-02-22T07:42:22.417Z,1005.88
2019-02-22T07:43:22.341Z,1005.87
2019-02-22T07:44:22.264Z,1005.89
2019-02-22T07:45:22.187Z,1005.88
2019-02-22T07:46:22.113Z,1005.92
2019-02-22T07:47:22.030Z,1005.95
2019-02-22T07:48:21.954Z,1005.95
2019-02-22T07:49:21.876Z,1005.97
2019-02-22T07:50:21.799Z,1005.98
2019-02-22T07:51:21.722Z,1006.00
2019-02-22T07:52:21.646Z,1006.01
2019-02-22T07:53:21.569Z,1006.03
2019-02-22T07:54:21.504Z,1006.04
2019-02-22T07:55:21.415Z,1006.04
2019-02-22T07:56:21.338Z,1006.00
2019-02-22T07:57:21.262Z,1005.99
2019-02-22T07:58:21.185Z,1005.96
2019-02-22T07:59:21.108Z,1006.01
2019-02-22T08:00:21.046Z,1006.05
2019-02-22T08:01:20.955Z,1006.04
2019-02-22T08:02:20.893Z,1006.01
2019-02-22T08:03:20.858Z,1006.02
2019-02-22T08:04:20.723Z,1006.03
2019-02-22T08:05:20.647Z,1006.12
2019-02-22T08:06:20.570Z,1006.10
2019-02-22T08:07:20.494Z,1006.13
2019-02-22T08:08:20.417Z,1006.08
2019-02-22T08:09:20.385Z,1006.09
2019-02-22T08:10:20.264Z,1006.13
2019-02-22T08:11:20.196Z,1006.12
2019-02-22T08:12:20.137Z,1006.12
2019-02-22T08:13:20.312Z,1006.15
2019-02-22T08:14:19.958Z,1006.13
2019-02-22T08:15:19.883Z,1006.14
2019-02-22T08:16:19.806Z,1006.16
2019-02-22T08:17:19.729Z,1006.20
2019-02-22T08:18:19.653Z,1006.22
2019-02-22T08:19:19.591Z,1006.20
2019-02-22T08:20:19.500Z,1006.27
2019-02-22T08:21:19.423Z,1006.25
2019-02-22T08:22:20.749Z,1006.27
2019-02-22T08:23:19.276Z,1006.26
2019-02-22T08:24:19.194Z,1006.29
2019-02-22T08:25:19.116Z,1006.26
2019-02-22T08:26:19.042Z,1006.30
2019-02-22T08:27:18.966Z,1006.32
2019-02-22T08:28:18.889Z,1006.31
2019-02-22T08:29:18.814Z,1006.33
2019-02-22T08:30:18.739Z,1006.37
2019-02-22T08:31:18.661Z,1006.34
2019-02-22T08:32:18.583Z,1006.34
2019-02-22T08:33:18.507Z,1006.31
2019-02-22T08:34:18.431Z,1006.35
2019-02-22T08:35:18.355Z,1006.32
2019-02-22T08:36:18.279Z,1006.30
2019-02-22T08:37:18.207Z,1006.32
2019-02-22T08:38:18.128Z,1006.33
2019-02-22T08:39:18.050Z,1006.36
2019-02-22T08:40:17.976Z,1006.37
2019-02-22T08:41:17.919Z,1006.36
2019-02-22T08:42:17.823Z,1006.37
2019-02-22T08:43:17.752Z,1006.45
2019-02-22T08:44:17.669Z,1006.50
2019-02-22T08:45:17.593Z,1006.49
2019-02-22T08:46:17.519Z,1006.48
2019-02-22T08:47:17.446Z,1006.45
2019-02-22T08:48:17.367Z,1006.47
2019-02-22T08:49:17.291Z,1006.50
2019-02-22T08:50:17.225Z,1006.56
2019-02-22T08:51:17.141Z,1006.50
2019-02-22T08:52:17.062Z,1006.50
2019-02-22T08:53:16.989Z,1006.46
2019-02-22T08:54:16.913Z,1006.46
2019-02-22T08:55:16.843Z,1006.45
2019-02-22T08:56:16.761Z,1006.45
2019-02-22T08:57:16.684Z,1006.51
2019-02-22T08:58:16.610Z,1006.58
2019-02-22T08:59:16.536Z,1006.66
2019-02-22T09:00:16.461Z,1006.62
2019-02-22T09:01:16.381Z,1006.67
2019-02-22T09:02:16.309Z,1006.61
2019-02-22T09:03:16.231Z,1006.69
2019-02-22T09:04:16.157Z,1006.71
2019-02-22T09:05:16.084Z,1006.71
2019-02-22T09:06:16.002Z,1006.75
2019-02-22T09:07:15.930Z,1006.73
2019-02-22T09:08:15.850Z,1006.77
2019-02-22T09:09:15.774Z,1006.77
2019-02-22T09:10:15.697Z,1006.73
2019-02-22T09:11:15.623Z,1006.78
2019-02-22T09:12:15.545Z,1006.80
2019-02-22T09:13:15.471Z,1006.81
2019-02-22T09:14:15.395Z,1006.82
2019-02-22T09:15:15.318Z,1006.83
2019-02-22T09:16:15.244Z,1006.83
2019-02-22T09:17:15.166Z,1006.86
2019-02-22T09:18:15.089Z,1006.93
2019-02-22T09:19:15.013Z,1006.96
2019-02-22T09:20:14.938Z,1006.93
2019-02-22T09:21:14.862Z,1006.93
2019-02-22T09:22:22.446Z,1006.90
2019-02-22T09:23:14.709Z,1006.91
2019-02-22T09:24:14.632Z,1006.91
2019-02-22T09:25:14.557Z,1006.92
2019-02-22T09:26:14.485Z,1006.93
2019-02-22T09:27:14.406Z,1006.94
2019-02-22T09:28:14.328Z,1006.91
2019-02-22T09:29:14.251Z,1006.97
2019-02-22T09:30:14.177Z,1006.94
2019-02-22T09:31:14.101Z,1007.00
2019-02-22T09:32:14.024Z,1006.97
2019-02-22T09:33:13.948Z,1007.02
2019-02-22T09:34:13.873Z,1006.99
2019-02-22T09:35:13.799Z,1007.01
2019-02-22T09:36:13.721Z,1007.01
2019-02-22T09:37:13.646Z,1006.97
2019-02-22T09:38:13.570Z,1007.02
2019-02-22T09:39:13.495Z,1006.97
2019-02-22T09:40:14.819Z,1007.00
2019-02-22T09:41:13.346Z,1007.04
2019-02-22T09:42:13.269Z,1007.08
2019-02-22T09:43:13.192Z,1007.08
2019-02-22T09:44:13.117Z,1007.08
2019-02-22T09:45:13.043Z,1007.07
2019-02-22T09:46:12.966Z,1007.09
2019-02-22T09:47:12.892Z,1007.07
2019-02-22T09:48:12.815Z,1007.06
2019-02-22T09:49:12.741Z,1007.06
2019-02-22T09:50:12.667Z,1007.06
2019-02-22T09:51:12.591Z,1007.09
2019-02-22T09:52:12.513Z,1007.16
2019-02-22T09:53:12.439Z,1007.13
2019-02-22T09:54:12.364Z,1007.14
2019-02-22T09:55:12.289Z,1007.12
2019-02-22T09:56:12.213Z,1007.17
2019-02-22T09:57:12.138Z,1007.23
2019-02-22T09:58:12.063Z,1007.25
2019-02-22T09:59:11.996Z,1007.26
2019-02-22T10:00:11.913Z,1007.26
2019-02-22T10:01:11.839Z,1007.24
2019-02-22T10:02:11.762Z,1007.22
2019-02-22T10:03:11.692Z,1007.28
2019-02-22T10:04:11.614Z,1007.28
2019-02-22T10:05:11.537Z,1007.28
2019-02-22T10:06:11.464Z,1007.29
2019-02-22T10:07:11.388Z,1007.27
2019-02-22T10:08:11.311Z,1007.29
2019-02-22T10:09:11.247Z,1007.33
2019-02-22T10:10:11.164Z,1007.35
2019-02-22T10:11:11.088Z,1007.28
2019-02-22T10:12:11.011Z,1007.28
2019-02-22T10:13:10.937Z,1007.31
2019-02-22T10:14:10.860Z,1007.31
2019-02-22T10:15:10.786Z,1007.30
2019-02-22T10:16:10.710Z,1007.27
2019-02-22T10:17:10.638Z,1007.24
2019-02-22T10:18:10.562Z,1007.27
2019-02-22T10:19:10.487Z,1007.22
2019-02-22T10:20:10.416Z,1007.24
2019-02-22T10:21:10.335Z,1007.27
2019-02-22T10:22:10.260Z,1007.27
2019-02-22T10:23:10.186Z,1007.34
2019-02-22T10:24:10.111Z,1007.31
2019-02-22T10:25:10.037Z,1007.38
2019-02-22T10:26:09.959Z,1007.40
2019-02-22T10:27:12.044Z,1007.39
2019-02-22T10:28:17.367Z,1007.39
2019-02-22T10:29:09.734Z,1007.42
2019-02-22T10:30:09.660Z,1007.45
2019-02-22T10:31:09.586Z,1007.46
2019-02-22T10:32:09.508Z,1007.45
2019-02-22T10:33:09.433Z,1007.47
2019-02-22T10:34:09.357Z,1007.46
2019-02-22T10:35:09.286Z,1007.44
2019-02-22T10:36:09.205Z,1007.45
2019-02-22T10:37:09.131Z,1007.41
2019-02-22T10:38:09.056Z,1007.42
2019-02-22T10:39:08.983Z,1007.42
2019-02-22T10:40:08.905Z,1007.37
2019-02-22T10:41:08.831Z,1007.40
2019-02-22T10:42:08.754Z,1007.42
2019-02-22T10:43:08.679Z,1007.42
2019-02-22T10:44:17.390Z,1007.39
2019-02-22T10:45:08.529Z,1007.47
2019-02-22T10:46:08.454Z,1007.47
2019-02-22T10:47:08.379Z,1007.53
2019-02-22T10:48:08.304Z,1007.52
2019-02-22T10:49:08.229Z,1007.54
2019-02-22T10:50:08.174Z,1007.54
2019-02-22T10:51:08.078Z,1007.57
2019-02-22T10:52:08.002Z,1007.55
2019-02-22T10:53:07.926Z,1007.51
2019-02-22T10:54:07.851Z,1007.51
2019-02-22T10:55:07.779Z,1007.51
2019-02-22T10:56:07.701Z,1007.52
2019-02-22T10:57:07.625Z,1007.52
2019-02-22T10:58:07.549Z,1007.55
2019-02-22T10:59:07.474Z,1007.59
2019-02-22T11:00:07.398Z,1007.50
2019-02-22T11:01:07.324Z,1007.51
2019-02-22T11:02:07.253Z,1007.49
2019-02-22T11:03:07.171Z,1007.53
2019-02-22T11:04:07.095Z,1007.52
2019-02-22T11:05:07.024Z,1007.53
2019-02-22T11:06:06.946Z,1007.51
2019-02-22T11:07:06.869Z,1007.50
2019-02-22T11:08:06.793Z,1007.50
2019-02-22T11:09:06.717Z,1007.52
2019-02-22T11:10:06.643Z,1007.53
2019-02-22T11:11:06.567Z,1007.52
2019-02-22T11:12:06.490Z,1007.52
2019-02-22T11:13:06.415Z,1007.57
2019-02-22T11:14:06.490Z,1007.54
2019-02-22T11:15:06.266Z,1007.54
2019-02-22T11:16:06.189Z,1007.58
2019-02-22T11:17:06.113Z,1007.60
2019-02-22T11:18:06.037Z,1007.55
2019-02-22T11:19:05.969Z,1007.59
2019-02-22T11:20:05.884Z,1007.60
2019-02-22T11:21:05.809Z,1007.61
2019-02-22T11:22:05.732Z,1007.60
2019-02-22T11:23:05.659Z,1007.59
2019-02-22T11:24:05.582Z,1007.59
2019-02-22T11:25:05.506Z,1007.59
2019-02-22T11:26:05.430Z,1007.58
2019-02-22T11:27:05.355Z,1007.62
2019-02-22T11:28:05.278Z,1007.58
2019-02-22T11:29:05.202Z,1007.63
2019-02-22T11:30:05.129Z,1007.61
2019-02-22T11:31:05.053Z,1007.60
2019-02-22T11:32:04.976Z,1007.64
2019-02-22T11:33:04.902Z,1007.65
2019-02-22T11:34:04.827Z,1007.67
2019-02-22T11:35:04.751Z,1007.67
2019-02-22T11:36:04.674Z,1007.71
2019-02-22T11:37:04.599Z,1007.67
2019-02-22T11:38:04.525Z,1007.68
2019-02-22T11:39:04.449Z,1007.72
2019-02-22T11:40:04.373Z,1007.72
2019-02-22T11:41:04.297Z,1007.69
2019-02-22T11:42:04.222Z,1007.71
2019-02-22T11:43:04.146Z,1007.71
2019-02-22T11:44:04.071Z,1007.72
2019-02-22T11:45:04.004Z,1007.76
2019-02-22T11:46:03.920Z,1007.78
2019-02-22T11:47:03.845Z,1007.83
2019-02-22T11:48:09.059Z,1007.85
2019-02-22T11:49:03.694Z,1007.82
2019-02-22T11:50:03.619Z,1007.80
2019-02-22T11:51:03.543Z,1007.83
2019-02-22T11:52:03.477Z,1007.81
2019-02-22T11:53:03.391Z,1007.82
2019-02-22T11:54:03.368Z,1007.83
2019-02-22T11:55:03.246Z,1007.84
2019-02-22T11:56:03.168Z,1007.82
2019-02-22T11:57:03.089Z,1007.83
2019-02-22T11:58:03.015Z,1007.83
2019-02-22T11:59:02.938Z,1007.83
2019-02-22T12:00:02.864Z,1007.84
2019-02-22T12:01:02.787Z,1007.85
2019-02-22T12:02:02.720Z,1007.85
2019-02-22T12:03:15.928Z,1007.85
2019-02-22T12:04:02.561Z,1007.90
2019-02-22T12:05:02.484Z,1007.84
2019-02-22T12:06:02.409Z,1007.89